Time;durP1;ratioP1;P1;durP2;ratioP2;P2;SDS_P1;SDS_P2;PMS_P1;PMS_P2;Temp;Humidity;BMP_temperature;BMP_pressure;BME280_temperature;BME280_humidity;BME280_pressure;Samples;Min_cycle;Max_cycle;Signal;HPM_P1;HPM_P2
2021/01/31 00:01:38;;;;;;;;;;;;;;;;;;4999753;28;20034;-80
2021/01/31 00:04:05;;;;;;;;;;;;;;;;;;4999808;28;19977;-83
2021/01/31 00:06:31;;;;;;;;;;;;;;;;;;4998088;28;19976;-81
2021/01/31 00:08:57;;;;;;;;;;;;;;;;;;5004865;28;19977;-80
2021/01/31 00:11:24;;;;;;;;;;;;;;;;;;5008647;28;20019;-80
2021/01/31 00:13:50;;;;;;;;;;;;;;;;;;5007345;28;19999;-80
2021/01/31 00:16:16;;;;;;;;;;;;;;;;;;5017006;28;19976;-81
2021/01/31 00:18:43;;;;;;;;;;;;;;;;;;4997113;28;20015;-81
2021/01/31 00:21:09;;;;;;;;;;;;;;;;;;5003445;28;19977;-84
2021/01/31 00:23:36;;;;;;;;;;;;;;;;;;5005895;28;19993;-84
2021/01/31 00:26:02;;;;;;;;;;;;;;;;;;5004663;28;19980;-84
2021/01/31 00:28:28;;;;;;;;;;;;;;;;;;5004609;28;20031;-84
2021/01/31 00:30:55;;;;;;;;;;;;;;;;;;5009643;28;19960;-84
2021/01/31 00:33:21;;;;;;;;;;;;;;;;;;5018448;28;19996;-84
2021/01/31 00:35:48;;;;;;;;;;;;;;;;;;5004343;28;19984;-85
2021/01/31 00:38:14;;;;;;;;;;;;;;;;;;5004070;28;20020;-83
2021/01/31 00:40:40;;;;;;;;;;;;;;;;;;5004813;28;19977;-83
2021/01/31 00:43:07;;;;;;;;;;;;;;;;;;4999552;28;19988;-83
2021/01/31 00:45:33;;;;;;;;;;;;;;;;;;5021651;28;19981;-84
2021/01/31 00:47:59;;;;;;;;;;;;;;;;;;5021767;28;20004;-84
2021/01/31 00:50:26;;;;;;;;;;;;;;;;;;5022255;28;20035;-82
2021/01/31 00:52:52;;;;;;;;;;;;;;;;;;5022972;28;20001;-82
2021/01/31 00:55:18;;;;;;;;;;;;;;;;;;5027713;28;19976;-84
2021/01/31 00:57:45;;;;;;;;;;;;;;;;;;5021751;28;19996;-83
2021/01/31 01:00:11;;;;;;;;;;;;;;;;;;5002759;28;19977;-84
2021/01/31 01:02:38;;;;;;;;;;;;;;;;;;5002930;28;20001;-84
2021/01/31 01:05:04;;;;;;;;;;;;;;;;;;5002900;28;20064;-84
2021/01/31 01:07:30;;;;;;;;;;;;;;;;;;5001927;28;19980;-82
2021/01/31 01:09:57;;;;;;;;;;;;;;;;;;5018467;28;19976;-84
2021/01/31 01:12:23;;;;;;;;;;;;;;;;;;5010474;28;19996;-84
2021/01/31 01:14:49;;;;;;;;;;;;;;;;;;5002587;28;20023;-84
2021/01/31 01:17:16;;;;;;;;;;;;;;;;;;5002868;28;19988;-84
2021/01/31 01:19:42;;;;;;;;;;;;;;;;;;5015595;28;19983;-84
2021/01/31 01:22:09;;;;;;;;;;;;;;;;;;5009692;28;19993;-84
2021/01/31 01:24:35;;;;;;;;;;;;;;;;;;5002992;28;20004;-84
2021/01/31 01:27:01;;;;;;;;;;;;;;;;;;5002600;28;20000;-84
2021/01/31 01:29:28;;;;;;;;;;;;;;;;;;5009380;28;19992;-84
2021/01/31 01:31:54;;;;;;;;;;;;;;;;;;4999689;28;20365;-84
2021/01/31 01:34:20;;;;;;;;;;;;;;;;;;5000688;28;19981;-83
2021/01/31 01:36:47;;;;;;;;;;;;;;;;;;5000155;28;19977;-81
2021/01/31 01:39:13;;;;;;;;;;;;;;;;;;5000468;28;19973;-83
2021/01/31 01:41:40;;;;;;;;;;;;;;;;;;4999435;28;19987;-83
2021/01/31 01:44:06;;;;;;;;;;;;;;;;;;5014003;28;19957;-84
2021/01/31 01:46:34;;;;;;;;;;;;;;;;;;5011690;28;19980;-84
2021/01/31 01:49:00;;;;;;;;;;;;;;;;;;5002018;28;19973;-83
2021/01/31 01:51:27;;;;;;;;;;;;;;;;;;5001138;28;19977;-83
2021/01/31 01:53:53;;;;;;;;;;;;;;;;;;5002140;28;20388;-83
2021/01/31 01:56:19;;;;;;;;;;;;;;;;;;5002632;28;19981;-83
2021/01/31 01:58:46;;;;;;;;;;;;;;;;;;5001435;28;20409;-83
2021/01/31 02:01:12;;;;;;;;;;;;;;;;;;4991678;28;19977;-83
2021/01/31 02:03:38;;;;;;;;;;;;;;;;;;5002747;28;20004;-83
2021/01/31 02:06:05;;;;;;;;;;;;;;;;;;5012544;28;19980;-83
2021/01/31 02:08:31;;;;;;;;;;;;;;;;;;5013101;28;19961;-81
2021/01/31 02:10:57;;;;;;;;;;;;;;;;;;5015017;28;19985;-82
2021/01/31 02:13:24;;;;;;;;;;;;;;;;;;5003622;28;19997;-82
2021/01/31 02:15:50;;;;;;;;;;;;;;;;;;5021198;28;19984;-81
2021/01/31 02:18:17;;;;;;;;;;;;;;;;;;5013878;28;19985;-82
2021/01/31 02:20:43;;;;;;;;;;;;;;;;;;5020537;28;19980;-82
2021/01/31 02:23:09;;;;;;;;;;;;;;;;;;5013418;28;20392;-81
2021/01/31 02:25:36;;;;;;;;;;;;;;;;;;5001238;28;19977;-81
2021/01/31 02:28:02;;;;;;;;;;;;;;;;;;5000437;28;19977;-82
2021/01/31 02:30:28;;;;;;;;;;;;;;;;;;5001402;28;20000;-81
2021/01/31 02:32:55;;;;;;;;;;;;;;;;;;5002655;28;19993;-81
2021/01/31 02:35:21;;;;;;;;;;;;;;;;;;5019678;28;19976;-82
2021/01/31 02:37:48;;;;;;;;;;;;;;;;;;5005967;28;19992;-81
2021/01/31 02:40:14;;;;;;;;;;;;;;;;;;5003827;28;19980;-82
2021/01/31 02:42:40;;;;;;;;;;;;;;;;;;5001404;28;20051;-82
2021/01/31 02:45:07;;;;;;;;;;;;;;;;;;4999868;28;20460;-82
2021/01/31 02:47:33;;;;;;;;;;;;;;;;;;5006423;28;19984;-81
2021/01/31 02:49:59;;;;;;;;;;;;;;;;;;4998980;28;19981;-81
2021/01/31 02:52:26;;;;;;;;;;;;;;;;;;4998703;28;20425;-81
2021/01/31 02:54:52;;;;;;;;;;;;;;;;;;4998982;28;20031;-81
2021/01/31 02:57:19;;;;;;;;;;;;;;;;;;4999736;28;20349;-80
2021/01/31 02:59:45;;;;;;;;;;;;;;;;;;4998960;28;19987;-83
2021/01/31 03:02:11;;;;;;;;;;;;;;;;;;4998622;28;19996;-83
2021/01/31 03:04:38;;;;;;;;;;;;;;;;;;4999183;28;19985;-82
2021/01/31 03:07:04;;;;;;;;;;;;;;;;;;4997811;28;20008;-82
2021/01/31 03:09:30;;;;;;;;;;;;;;;;;;4999136;28;19980;-81
2021/01/31 03:11:57;;;;;;;;;;;;;;;;;;4999153;28;19995;-81
2021/01/31 03:14:23;;;;;;;;;;;;;;;;;;5000047;28;20033;-81
2021/01/31 03:16:50;;;;;;;;;;;;;;;;;;4999126;28;20421;-81
2021/01/31 03:19:16;;;;;;;;;;;;;;;;;;5000045;28;20001;-81
2021/01/31 03:21:42;;;;;;;;;;;;;;;;;;5010188;28;19977;-81
2021/01/31 03:24:09;;;;;;;;;;;;;;;;;;4999220;28;19988;-81
2021/01/31 03:26:35;;;;;;;;;;;;;;;;;;4998421;28;20027;-81
2021/01/31 03:29:01;;;;;;;;;;;;;;;;;;4999332;28;20126;-82
2021/01/31 03:31:28;;;;;;;;;;;;;;;;;;4999311;28;19981;-81
2021/01/31 03:33:54;;;;;;;;;;;;;;;;;;4998716;28;19998;-81
2021/01/31 03:36:21;;;;;;;;;;;;;;;;;;4998866;28;20019;-80
2021/01/31 03:38:47;;;;;;;;;;;;;;;;;;4999736;28;19993;-80
2021/01/31 03:41:13;;;;;;;;;;;;;;;;;;5004733;28;19973;-82
2021/01/31 03:43:40;;;;;;;;;;;;;;;;;;5006887;28;20475;-81
2021/01/31 03:46:06;;;;;;;;;;;;;;;;;;4996403;28;19932;-82
2021/01/31 03:48:32;;;;;;;;;;;;;;;;;;5011800;28;20024;-82
2021/01/31 03:50:59;;;;;;;;;;;;;;;;;;4998442;28;19981;-82
2021/01/31 03:53:25;;;;;;;;;;;;;;;;;;5002064;28;20357;-85
2021/01/31 03:55:52;;;;;;;;;;;;;;;;;;5005244;28;19973;-85
2021/01/31 03:58:18;;;;;;;;;;;;;;;;;;5003320;28;20000;-85
2021/01/31 04:00:44;;;;;;;;;;;;;;;;;;5003747;28;19973;-85
2021/01/31 04:03:11;;;;;;;;;;;;;;;;;;5003216;28;19989;-85
2021/01/31 04:05:37;;;;;;;;;;;;;;;;;;5007526;28;20012;-85
2021/01/31 04:08:04;;;;;;;;;;;;;;;;;;5005671;28;19973;-86
2021/01/31 04:10:30;;;;;;;;;;;;;;;;;;5006787;28;20445;-85
2021/01/31 04:12:56;;;;;;;;;;;;;;;;;;5016063;28;19981;-79
2021/01/31 04:15:23;;;;;;;;;;;;;;;;;;5014860;28;19976;-85
2021/01/31 04:17:49;;;;;;;;;;;;;;;;;;5010016;28;19993;-85
2021/01/31 04:20:15;;;;;;;;;;;;;;;;;;5009434;28;19965;-86
2021/01/31 04:22:42;;;;;;;;;;;;;;;;;;5008063;28;19993;-86
2021/01/31 04:25:08;;;;;;;;;;;;;;;;;;5009058;28;19976;-85
2021/01/31 04:27:35;;;;;;;;;;;;;;;;;;5007734;28;19988;-86
2021/01/31 04:30:01;;;;;;;;;;;;;;;;;;5009771;28;19977;-85
2021/01/31 04:32:27;;;;;;;;;;;;;;;;;;5012599;28;20004;-86
2021/01/31 04:34:54;;;;;;;;;;;;;;;;;;5004560;28;20070;-85
2021/01/31 04:37:23;;;;;;;;;;;;;;;;;;5002918;28;19988;-86
2021/01/31 04:39:49;;;;;;;;;;;;;;;;;;5005332;28;19973;-82
2021/01/31 04:42:15;;;;;;;;;;;;;;;;;;5004796;28;19993;-84
2021/01/31 04:44:42;;;;;;;;;;;;;;;;;;5009764;28;19971;-84
2021/01/31 04:47:08;;;;;;;;;;;;;;;;;;5010360;28;20007;-83
2021/01/31 04:49:34;;;;;;;;;;;;;;;;;;5014560;28;19980;-79
2021/01/31 04:52:01;;;;;;;;;;;;;;;;;;5018496;28;20013;-80
2021/01/31 04:54:27;;;;;;;;;;;;;;;;;;5019401;28;19995;-82
2021/01/31 04:56:54;;;;;;;;;;;;;;;;;;5025500;28;19977;-84
2021/01/31 04:59:20;;;;;;;;;;;;;;;;;;5026563;28;20444;-80
2021/01/31 05:01:46;;;;;;;;;;;;;;;;;;4997511;28;19989;-84
2021/01/31 05:04:13;;;;;;;;;;;;;;;;;;5016255;28;20433;-82
2021/01/31 05:06:39;;;;;;;;;;;;;;;;;;5010436;28;19977;-84
2021/01/31 05:09:06;;;;;;;;;;;;;;;;;;5008904;28;19977;-84
2021/01/31 05:11:32;;;;;;;;;;;;;;;;;;5024147;28;19976;-84
2021/01/31 05:13:58;;;;;;;;;;;;;;;;;;5008298;28;19973;-84
2021/01/31 05:16:25;;;;;;;;;;;;;;;;;;5011823;28;20088;-84
2021/01/31 05:18:51;;;;;;;;;;;;;;;;;;5007742;28;20023;-84
2021/01/31 05:21:17;;;;;;;;;;;;;;;;;;5013347;28;19981;-84
2021/01/31 05:23:44;;;;;;;;;;;;;;;;;;5015345;28;19981;-84
2021/01/31 05:26:10;;;;;;;;;;;;;;;;;;5022652;28;19973;-85
2021/01/31 05:28:36;;;;;;;;;;;;;;;;;;5015848;28;19977;-84
2021/01/31 05:31:03;;;;;;;;;;;;;;;;;;5016960;28;21169;-84
2021/01/31 05:33:29;;;;;;;;;;;;;;;;;;5016196;28;19993;-84
2021/01/31 05:35:56;;;;;;;;;;;;;;;;;;5027698;28;19977;-83
2021/01/31 05:38:22;;;;;;;;;;;;;;;;;;5015023;28;19989;-84
2021/01/31 05:40:48;;;;;;;;;;;;;;;;;;5017537;28;20295;-84
2021/01/31 05:43:15;;;;;;;;;;;;;;;;;;5016767;28;20000;-83
2021/01/31 05:45:41;;;;;;;;;;;;;;;;;;5018293;28;19977;-85
2021/01/31 05:48:07;;;;;;;;;;;;;;;;;;5014953;28;20357;-84
2021/01/31 05:50:34;;;;;;;;;;;;;;;;;;5003121;28;19976;-84
2021/01/31 05:53:00;;;;;;;;;;;;;;;;;;5008318;28;20012;-84
2021/01/31 05:55:27;;;;;;;;;;;;;;;;;;5022282;28;20334;-85
2021/01/31 05:57:53;;;;;;;;;;;;;;;;;;5013249;28;19991;-84
2021/01/31 06:00:19;;;;;;;;;;;;;;;;;;5001273;28;19981;-83
2021/01/31 06:02:46;;;;;;;;;;;;;;;;;;5003776;28;20027;-84
2021/01/31 06:05:12;;;;;;;;;;;;;;;;;;5013255;28;19961;-82
2021/01/31 06:07:38;;;;;;;;;;;;;;;;;;5023211;28;19961;-80
2021/01/31 06:10:05;;;;;;;;;;;;;;;;;;5021274;28;19964;-80
2021/01/31 06:12:31;;;;;;;;;;;;;;;;;;5021264;28;19981;-80
2021/01/31 06:14:58;;;;;;;;;;;;;;;;;;5019618;28;19981;-85
2021/01/31 06:17:24;;;;;;;;;;;;;;;;;;5018113;28;20059;-85
2021/01/31 06:19:50;;;;;;;;;;;;;;;;;;5024228;28;19980;-83
2021/01/31 06:22:17;;;;;;;;;;;;;;;;;;5023098;28;19989;-84
2021/01/31 06:24:43;;;;;;;;;;;;;;;;;;5008123;28;19973;-84
2021/01/31 06:27:09;;;;;;;;;;;;;;;;;;5015182;28;20075;-84
2021/01/31 06:29:36;;;;;;;;;;;;;;;;;;5004856;28;20430;-83
2021/01/31 06:32:02;;;;;;;;;;;;;;;;;;5007585;28;19993;-83
2021/01/31 06:34:29;;;;;;;;;;;;;;;;;;5023251;28;19976;-83
2021/01/31 06:36:55;;;;;;;;;;;;;;;;;;5018872;28;19976;-81
2021/01/31 06:39:32;;;;;;;;;;;;;;;;;;5016594;28;20055;-82
2021/01/31 06:41:58;;;;;;;;;;;;;;;;;;5019926;28;19996;-83
2021/01/31 06:44:25;;;;;;;;;;;;;;;;;;5029979;28;19988;-84
2021/01/31 06:46:51;;;;;;;;;;;;;;;;;;5018997;28;19973;-84
2021/01/31 06:49:17;;;;;;;;;;;;;;;;;;5017124;28;19976;-85
2021/01/31 06:51:44;;;;;;;;;;;;;;;;;;5009393;28;20040;-85
2021/01/31 06:54:10;;;;;;;;;;;;;;;;;;5005169;28;19976;-86
2021/01/31 06:56:37;;;;;;;;;;;;;;;;;;5015351;28;19984;-83
2021/01/31 06:59:03;;;;;;;;;;;;;;;;;;5019404;28;19989;-85
2021/01/31 07:01:29;;;;;;;;;;;;;;;;;;5021823;28;19977;-84
2021/01/31 07:03:56;;;;;;;;;;;;;;;;;;5011955;28;20027;-83
2021/01/31 07:06:22;;;;;;;;;;;;;;;;;;5006427;28;19973;-85
2021/01/31 07:08:48;;;;;;;;;;;;;;;;;;5010655;28;19984;-85
2021/01/31 07:11:15;;;;;;;;;;;;;;;;;;5010798;28;19980;-83
2021/01/31 07:13:41;;;;;;;;;;;;;;;;;;5007140;28;20491;-85
2021/01/31 07:16:08;;;;;;;;;;;;;;;;;;5003736;28;19981;-85
2021/01/31 07:18:34;;;;;;;;;;;;;;;;;;5000956;28;19988;-84
2021/01/31 07:21:00;;;;;;;;;;;;;;;;;;5005414;28;20433;-83
2021/01/31 07:23:27;;;;;;;;;;;;;;;;;;5015671;28;19995;-82
2021/01/31 07:25:53;;;;;;;;;;;;;;;;;;5022118;28;19973;-83
2021/01/31 07:28:20;;;;;;;;;;;;;;;;;;5006539;28;20345;-82
2021/01/31 07:30:46;;;;;;;;;;;;;;;;;;5001986;28;20500;-83
2021/01/31 07:33:12;;;;;;;;;;;;;;;;;;5001861;28;20000;-84
2021/01/31 07:35:39;;;;;;;;;;;;;;;;;;5002774;28;19983;-82
2021/01/31 07:38:05;;;;;;;;;;;;;;;;;;5008104;28;20020;-82
2021/01/31 07:40:32;;;;;;;;;;;;;;;;;;5009073;28;20349;-83
2021/01/31 07:42:58;;;;;;;;;;;;;;;;;;5006091;28;20028;-85
2021/01/31 07:45:25;;;;;;;;;;;;;;;;;;5001337;28;19978;-85
2021/01/31 07:47:51;;;;;;;;;;;;;;;;;;5000396;28;19973;-85
2021/01/31 07:50:18;;;;;;;;;;;;;;;;;;5001578;28;19977;-81
2021/01/31 07:52:44;;;;;;;;;;;;;;;;;;5000094;28;20043;-83
2021/01/31 07:55:10;;;;;;;;;;;;;;;;;;5000683;28;20039;-83
2021/01/31 07:57:38;;;;;;;;;;;;;;;;;;5000714;28;19993;-84
2021/01/31 08:00:05;;;;;;;;;;;;;;;;;;4999729;28;19973;-85
2021/01/31 08:02:31;;;;;;;;;;;;;;;;;;5001495;28;20013;-82
2021/01/31 08:04:57;;;;;;;;;;;;;;;;;;5000323;28;19977;-84
2021/01/31 08:07:24;;;;;;;;;;;;;;;;;;5002055;28;19981;-83
2021/01/31 08:09:50;;;;;;;;;;;;;;;;;;5003779;28;19981;-84
2021/01/31 08:12:16;;;;;;;;;;;;;;;;;;5003291;28;19989;-84
2021/01/31 08:14:43;;;;;;;;;;;;;;;;;;5002535;28;19977;-84
2021/01/31 08:17:09;;;;;;;;;;;;;;;;;;4999207;28;19980;-84
2021/01/31 08:19:36;;;;;;;;;;;;;;;;;;5001716;28;19983;-84
2021/01/31 08:22:02;;;;;;;;;;;;;;;;;;5014790;28;20062;-86
2021/01/31 08:24:28;;;;;;;;;;;;;;;;;;5003370;28;19977;-87
2021/01/31 08:26:55;;;;;;;;;;;;;;;;;;5005547;28;19973;-84
2021/01/31 08:29:21;;;;;;;;;;;;;;;;;;5010136;28;19973;-84
2021/01/31 08:31:48;;;;;;;;;;;;;;;;;;5008590;28;19988;-86
2021/01/31 08:34:14;;;;;;;;;;;;;;;;;;5017684;28;19980;-84
2021/01/31 08:36:40;;;;;;;;;;;;;;;;;;5021819;28;19977;-86
2021/01/31 08:39:07;;;;;;;;;;;;;;;;;;5011479;28;19993;-84
2021/01/31 08:41:33;;;;;;;;;;;;;;;;;;5017914;28;19977;-84
2021/01/31 08:49:35;;;;;;;;;;;;;;;;;;4946019;29;20049;-84
2021/01/31 08:55:00;;;;;;;;;;;;;;;;;;4942931;29;19974;-85
2021/01/31 08:57:27;;;;;;;;;;;;;;;;;;4943056;29;19978;-84
2021/01/31 08:59:53;;;;;;;;;;;;;;;;;;4939613;29;19974;-84
2021/01/31 09:02:19;;;;;;;;;;;;;;;;;;4937152;29;20335;-85
2021/01/31 09:04:46;;;;;;;;;;;;;;;;;;4947658;29;19985;-83
2021/01/31 09:07:12;;;;;;;;;;;;;;;;;;4949313;29;20497;-82
2021/01/31 09:09:38;;;;;;;;;;;;;;;;;;4946720;29;20013;-82
2021/01/31 09:12:05;;;;;;;;;;;;;;;;;;4946403;29;19998;-85
2021/01/31 09:14:31;;;;;;;;;;;;;;;;;;4945750;29;19982;-85
2021/01/31 09:16:58;;;;;;;;;;;;;;;;;;4946552;29;19978;-83
2021/01/31 09:19:24;;;;;;;;;;;;;;;;;;4950365;29;19990;-80
2021/01/31 09:21:50;;;;;;;;;;;;;;;;;;4946486;29;19998;-82
2021/01/31 09:24:17;;;;;;;;;;;;;;;;;;4996125;28;19984;-81
2021/01/31 09:26:43;;;;;;;;;;;;;;;;;;5002181;28;19973;-80
2021/01/31 09:29:09;;;;;;;;;;;;;;;;;;5001665;28;20414;-85
2021/01/31 09:31:36;;;;;;;;;;;;;;;;;;5002397;28;19977;-85
2021/01/31 09:34:02;;;;;;;;;;;;;;;;;;5003351;28;19976;-85
2021/01/31 09:36:28;;;;;;;;;;;;;;;;;;5020483;28;19961;-86
2021/01/31 09:38:56;;;;;;;;;;;;;;;;;;5011892;28;20441;-87
2021/01/31 09:41:23;;;;;;;;;;;;;;;;;;5004060;28;19981;-86
2021/01/31 09:43:49;;;;;;;;;;;;;;;;;;5016571;28;19996;-87
2021/01/31 09:46:15;;;;;;;;;;;;;;;;;;5017662;28;19973;-86
2021/01/31 09:48:42;;;;;;;;;;;;;;;;;;5011606;28;19973;-87
2021/01/31 09:51:08;;;;;;;;;;;;;;;;;;5004899;28;19976;-88
2021/01/31 09:53:35;;;;;;;;;;;;;;;;;;5009770;28;20077;-87
2021/01/31 09:56:01;;;;;;;;;;;;;;;;;;5007269;28;19977;-87
2021/01/31 09:58:27;;;;;;;;;;;;;;;;;;5020679;28;19993;-86
2021/01/31 10:00:54;;;;;;;;;;;;;;;;;;5019607;28;19983;-87
2021/01/31 10:03:29;;;;;;;;;;;;;;;;;;5015332;28;19989;-86
2021/01/31 10:05:56;;;;;;;;;;;;;;;;;;5006239;28;19976;-83
2021/01/31 10:08:24;;;;;;;;;;;;;;;;;;5004337;28;19995;-86
2021/01/31 10:10:51;;;;;;;;;;;;;;;;;;5010073;28;19977;-86
2021/01/31 10:13:18;;;;;;;;;;;;;;;;;;5011404;28;20483;-87
2021/01/31 10:15:44;;;;;;;;;;;;;;;;;;5038990;28;19996;-87
2021/01/31 10:18:10;;;;;;;;;;;;;;;;;;5024451;28;19996;-87
2021/01/31 10:20:38;;;;;;;;;;;;;;;;;;5007423;28;19981;-87
2021/01/31 10:23:04;;;;;;;;;;;;;;;;;;5029183;28;20575;-85
2021/01/31 10:25:31;;;;;;;;;;;;;;;;;;5010449;28;20381;-86
2021/01/31 10:27:57;;;;;;;;;;;;;;;;;;4986647;28;19988;-86
2021/01/31 10:30:24;;;;;;;;;;;;;;;;;;5005567;28;20000;-86
2021/01/31 10:32:50;;;;;;;;;;;;;;;;;;5004572;28;19993;-86
2021/01/31 10:35:16;;;;;;;;;;;;;;;;;;5003263;28;19973;-85
2021/01/31 10:37:43;;;;;;;;;;;;;;;;;;4999489;28;20355;-85
2021/01/31 10:40:09;;;;;;;;;;;;;;;;;;5007500;28;19977;-85
2021/01/31 10:42:35;;;;;;;;;;;;;;;;;;4998013;28;19988;-86
2021/01/31 10:45:02;;;;;;;;;;;;;;;;;;5010894;28;19980;-85
2021/01/31 10:47:29;;;;;;;;;;;;;;;;;;5013934;28;19981;-84
2021/01/31 10:49:56;;;;;;;;;;;;;;;;;;5019340;28;19957;-87
2021/01/31 10:52:22;;;;;;;;;;;;;;;;;;5003042;28;19996;-85
2021/01/31 10:54:49;;;;;;;;;;;;;;;;;;5005849;28;19973;-88
2021/01/31 10:57:15;;;;;;;;;;;;;;;;;;5007717;28;19976;-85
2021/01/31 10:59:41;;;;;;;;;;;;;;;;;;5014945;28;20004;-85
2021/01/31 11:02:08;;;;;;;;;;;;;;;;;;5012869;28;19999;-88
2021/01/31 11:04:34;;;;;;;;;;;;;;;;;;5003527;28;19984;-87
2021/01/31 11:07:01;;;;;;;;;;;;;;;;;;5004039;28;19977;-87
2021/01/31 11:09:27;;;;;;;;;;;;;;;;;;5003948;28;19980;-87
2021/01/31 11:11:54;;;;;;;;;;;;;;;;;;5003015;28;20006;-87
2021/01/31 11:14:20;;;;;;;;;;;;;;;;;;5004798;28;19973;-88
2021/01/31 11:16:47;;;;;;;;;;;;;;;;;;5003998;28;20004;-88
2021/01/31 11:19:13;;;;;;;;;;;;;;;;;;5009699;28;19985;-89
2021/01/31 11:21:39;;;;;;;;;;;;;;;;;;5018669;28;19932;-87
2021/01/31 11:24:06;;;;;;;;;;;;;;;;;;5004608;28;19937;-87
2021/01/31 11:26:32;;;;;;;;;;;;;;;;;;5009021;28;19989;-87
2021/01/31 11:28:59;;;;;;;;;;;;;;;;;;5024397;28;19950;-84
2021/01/31 11:31:25;;;;;;;;;;;;;;;;;;5017144;28;20290;-88
2021/01/31 11:33:54;;;;;;;;;;;;;;;;;;5008813;28;19933;-88
2021/01/31 11:36:20;;;;;;;;;;;;;;;;;;5005613;28;20039;-88
2021/01/31 11:38:46;;;;;;;;;;;;;;;;;;5023614;28;20006;-87
2021/01/31 11:41:13;;;;;;;;;;;;;;;;;;5007881;28;19984;-88
2021/01/31 11:43:39;;;;;;;;;;;;;;;;;;4995865;28;19993;-87
2021/01/31 11:46:06;;;;;;;;;;;;;;;;;;5009881;28;19983;-86
2021/01/31 11:48:32;;;;;;;;;;;;;;;;;;5004426;28;19980;-88
2021/01/31 11:50:59;;;;;;;;;;;;;;;;;;5017543;28;19980;-91
2021/01/31 11:53:25;;;;;;;;;;;;;;;;;;5007882;28;19962;-90
2021/01/31 11:55:55;;;;;;;;;;;;;;;;;;5003885;28;19981;-92
2021/01/31 11:58:22;;;;;;;;;;;;;;;;;;5007862;28;20352;-88
2021/01/31 12:00:48;;;;;;;;;;;;;;;;;;5023570;28;19980;-89
2021/01/31 12:03:14;;;;;;;;;;;;;;;;;;5010922;28;19988;-86
2021/01/31 12:05:41;;;;;;;;;;;;;;;;;;5019745;28;20030;-87
2021/01/31 12:08:07;;;;;;;;;;;;;;;;;;5005767;28;20485;-87
2021/01/31 12:10:34;;;;;;;;;;;;;;;;;;5005400;28;19976;-87
2021/01/31 12:13:00;;;;;;;;;;;;;;;;;;5008276;28;20028;-87
2021/01/31 12:15:27;;;;;;;;;;;;;;;;;;5009478;28;19980;-87
2021/01/31 12:17:53;;;;;;;;;;;;;;;;;;5008753;28;19993;-87
2021/01/31 12:20:19;;;;;;;;;;;;;;;;;;5017794;28;19910;-87
2021/01/31 12:22:47;;;;;;;;;;;;;;;;;;5022465;28;19926;-87
2021/01/31 12:25:13;;;;;;;;;;;;;;;;;;5019801;28;19933;-87
2021/01/31 12:27:40;;;;;;;;;;;;;;;;;;5004445;28;19971;-87
2021/01/31 12:30:07;;;;;;;;;;;;;;;;;;5005795;28;19926;-86
2021/01/31 12:32:33;;;;;;;;;;;;;;;;;;5009797;28;19996;-86
2021/01/31 12:35:00;;;;;;;;;;;;;;;;;;5012472;28;19973;-87
2021/01/31 12:37:26;;;;;;;;;;;;;;;;;;5026893;28;19986;-88
2021/01/31 12:39:55;;;;;;;;;;;;;;;;;;5027845;28;19949;-88
2021/01/31 12:42:21;;;;;;;;;;;;;;;;;;5026992;28;19968;-87
2021/01/31 12:44:48;;;;;;;;;;;;;;;;;;5030215;28;19972;-88
2021/01/31 12:47:15;;;;;;;;;;;;;;;;;;5026222;28;20314;-87
2021/01/31 12:49:41;;;;;;;;;;;;;;;;;;5011092;28;19932;-88
2021/01/31 12:52:07;;;;;;;;;;;;;;;;;;5008899;28;19926;-89
2021/01/31 12:54:34;;;;;;;;;;;;;;;;;;5011104;28;19932;-88
2021/01/31 12:57:00;;;;;;;;;;;;;;;;;;5009058;28;19932;-88
2021/01/31 12:59:28;;;;;;;;;;;;;;;;;;5009929;28;19936;-89
2021/01/31 13:02:02;;;;;;;;;;;;;;;;;;5008678;28;19932;-89
2021/01/31 13:04:30;;;;;;;;;;;;;;;;;;5009608;28;19985;-88
2021/01/31 13:06:57;;;;;;;;;;;;;;;;;;5010396;28;19930;-88
2021/01/31 13:09:29;;;;;;;;;;;;;;;;;;5009814;28;19958;-88
2021/01/31 13:12:04;;;;;;;;;;;;;;;;;;5009530;28;19930;-88
2021/01/31 13:14:31;;;;;;;;;;;;;;;;;;5010260;28;19926;-88
2021/01/31 13:16:58;;;;;;;;;;;;;;;;;;5008822;28;19968;-89
2021/01/31 13:19:24;;;;;;;;;;;;;;;;;;5009435;28;20021;-88
2021/01/31 13:21:51;;;;;;;;;;;;;;;;;;5009181;28;19926;-88
2021/01/31 13:24:17;;;;;;;;;;;;;;;;;;5020293;28;19910;-88
2021/01/31 13:26:44;;;;;;;;;;;;;;;;;;5010177;28;19926;-88
2021/01/31 13:29:11;;;;;;;;;;;;;;;;;;5019383;28;19997;-89
2021/01/31 13:31:37;;;;;;;;;;;;;;;;;;5016917;28;19925;-88
2021/01/31 13:34:04;;;;;;;;;;;;;;;;;;5007704;28;20381;-88
2021/01/31 13:36:31;;;;;;;;;;;;;;;;;;5014542;28;19926;-88
2021/01/31 13:38:59;;;;;;;;;;;;;;;;;;5017118;28;19910;-88
2021/01/31 13:41:26;;;;;;;;;;;;;;;;;;5021365;28;19969;-88
2021/01/31 13:43:52;;;;;;;;;;;;;;;;;;5020587;28;19914;-88
2021/01/31 13:46:19;;;;;;;;;;;;;;;;;;5010429;28;19997;-87
2021/01/31 13:48:48;;;;;;;;;;;;;;;;;;5010604;28;19932;-87
2021/01/31 13:51:19;;;;;;;;;;;;;;;;;;5009456;28;20370;-87
2021/01/31 13:53:48;;;;;;;;;;;;;;;;;;5011618;28;19933;-88
2021/01/31 13:56:15;;;;;;;;;;;;;;;;;;5017943;28;19949;-87
2021/01/31 13:58:41;;;;;;;;;;;;;;;;;;5010221;28;19926;-89
2021/01/31 14:01:08;;;;;;;;;;;;;;;;;;5008476;28;19926;-87
2021/01/31 14:03:34;;;;;;;;;;;;;;;;;;5010216;28;20346;-87
2021/01/31 14:06:01;;;;;;;;;;;;;;;;;;5011069;28;19932;-87
2021/01/31 14:08:28;;;;;;;;;;;;;;;;;;5010431;28;19925;-90
2021/01/31 14:10:54;;;;;;;;;;;;;;;;;;5011936;28;19949;-87
2021/01/31 14:13:21;;;;;;;;;;;;;;;;;;5012273;28;19925;-88
2021/01/31 14:15:47;;;;;;;;;;;;;;;;;;5016663;28;19926;-88
2021/01/31 14:18:14;;;;;;;;;;;;;;;;;;5017895;28;19958;-88
2021/01/31 14:20:40;;;;;;;;;;;;;;;;;;5016732;28;19933;-88
2021/01/31 14:23:07;;;;;;;;;;;;;;;;;;5015373;28;19936;-88
2021/01/31 14:25:33;;;;;;;;;;;;;;;;;;5016891;28;19926;-88
2021/01/31 14:28:00;;;;;;;;;;;;;;;;;;5009823;28;19930;-87
2021/01/31 14:30:27;;;;;;;;;;;;;;;;;;5009272;28;19930;-88
2021/01/31 14:32:53;;;;;;;;;;;;;;;;;;5009538;28;19926;-87
2021/01/31 14:35:20;;;;;;;;;;;;;;;;;;5009795;28;19930;-87
2021/01/31 14:37:49;;;;;;;;;;;;;;;;;;5009717;28;19940;-87
2021/01/31 14:40:15;;;;;;;;;;;;;;;;;;5009955;28;19926;-87
2021/01/31 14:42:42;;;;;;;;;;;;;;;;;;5009675;28;19958;-88
2021/01/31 14:45:08;;;;;;;;;;;;;;;;;;5007882;28;19926;-87
2021/01/31 14:47:35;;;;;;;;;;;;;;;;;;5010584;28;19977;-87
2021/01/31 14:50:01;;;;;;;;;;;;;;;;;;5012064;28;19993;-87
2021/01/31 14:52:28;;;;;;;;;;;;;;;;;;5011096;28;19957;-87
2021/01/31 14:54:54;;;;;;;;;;;;;;;;;;5006889;28;19932;-85
2021/01/31 14:57:21;;;;;;;;;;;;;;;;;;5003720;28;19932;-88
2021/01/31 14:59:47;;;;;;;;;;;;;;;;;;5007831;28;19926;-91
2021/01/31 15:02:14;;;;;;;;;;;;;;;;;;5009306;28;20353;-88
2021/01/31 15:04:40;;;;;;;;;;;;;;;;;;5008901;28;19972;-83
2021/01/31 15:07:07;;;;;;;;;;;;;;;;;;5023447;28;19929;-87
2021/01/31 15:09:33;;;;;;;;;;;;;;;;;;5011151;28;19934;-87
2021/01/31 15:11:59;;;;;;;;;;;;;;;;;;5002559;28;20445;-87
2021/01/31 15:14:26;;;;;;;;;;;;;;;;;;5002717;28;19929;-88
2021/01/31 15:16:53;;;;;;;;;;;;;;;;;;5014766;28;19932;-92
2021/01/31 15:19:19;;;;;;;;;;;;;;;;;;5016858;28;19940;-89
2021/01/31 15:21:47;;;;;;;;;;;;;;;;;;5005809;28;19926;-89
2021/01/31 15:24:14;;;;;;;;;;;;;;;;;;5004815;28;19965;-90
2021/01/31 15:26:41;;;;;;;;;;;;;;;;;;5012104;28;19930;-90
2021/01/31 15:29:07;;;;;;;;;;;;;;;;;;5017192;28;19949;-88
2021/01/31 15:31:33;;;;;;;;;;;;;;;;;;5005181;28;19936;-88
2021/01/31 15:34:00;;;;;;;;;;;;;;;;;;5001888;28;19949;-87
2021/01/31 15:36:26;;;;;;;;;;;;;;;;;;5010182;28;19930;-89
2021/01/31 15:38:52;;;;;;;;;;;;;;;;;;5021812;28;19933;-87
2021/01/31 15:41:19;;;;;;;;;;;;;;;;;;5011232;28;19925;-87
2021/01/31 15:43:45;;;;;;;;;;;;;;;;;;5003714;28;19926;-87
2021/01/31 15:46:12;;;;;;;;;;;;;;;;;;5003148;28;19925;-88
2021/01/31 15:48:38;;;;;;;;;;;;;;;;;;5002386;28;19933;-87
2021/01/31 15:51:04;;;;;;;;;;;;;;;;;;5004178;28;19968;-88
2021/01/31 15:53:31;;;;;;;;;;;;;;;;;;5017340;28;19926;-85
2021/01/31 15:55:57;;;;;;;;;;;;;;;;;;5007102;28;19926;-85
2021/01/31 15:58:24;;;;;;;;;;;;;;;;;;5001588;28;19988;-85
2021/01/31 16:00:50;;;;;;;;;;;;;;;;;;5009660;28;20400;-85
2021/01/31 16:03:17;;;;;;;;;;;;;;;;;;5016447;28;19921;-85
2021/01/31 16:08:28;;;;;;;;;;;;;;;;;;5029062;28;19925;-84
2021/01/31 16:10:56;;;;;;;;;;;;;;;;;;5012069;28;19925;-84
2021/01/31 16:13:22;;;;;;;;;;;;;;;;;;5000759;28;19929;-84
2021/01/31 16:15:50;;;;;;;;;;;;;;;;;;5007875;28;19925;-86
2021/01/31 16:18:16;;;;;;;;;;;;;;;;;;5018817;28;19937;-87
2021/01/31 16:20:45;;;;;;;;;;;;;;;;;;5017410;28;19910;-86
2021/01/31 16:23:11;;;;;;;;;;;;;;;;;;5017269;28;19926;-86
2021/01/31 16:25:37;;;;;;;;;;;;;;;;;;5018737;28;19930;-86
2021/01/31 16:28:04;;;;;;;;;;;;;;;;;;5018584;28;19910;-86
2021/01/31 16:30:32;;;;;;;;;;;;;;;;;;5008254;28;21287;-87
2021/01/31 16:32:59;;;;;;;;;;;;;;;;;;5004167;28;19926;-89
2021/01/31 16:35:25;;;;;;;;;;;;;;;;;;5003481;28;19949;-88
2021/01/31 16:37:52;;;;;;;;;;;;;;;;;;5003743;28;19972;-87
2021/01/31 16:40:18;;;;;;;;;;;;;;;;;;5009928;28;19936;-87
2021/01/31 16:42:45;;;;;;;;;;;;;;;;;;5018972;28;19909;-87
2021/01/31 16:45:11;;;;;;;;;;;;;;;;;;5018537;28;19993;-87
2021/01/31 16:47:38;;;;;;;;;;;;;;;;;;5012643;28;19929;-87
2021/01/31 16:50:05;;;;;;;;;;;;;;;;;;5012807;28;19964;-87
2021/01/31 16:52:31;;;;;;;;;;;;;;;;;;5029784;28;19940;-86